Decoded Metar for PABI (DELTA JUNCTION in AK, USA) (IATA:BIG) | Meteo·Mobile Aviation Weather
aviador You're here:

PABI Decoded Metar

DELTA JUNCTION in AK, USA
Report Time2020-02-22 22:53:00
UTC Time2020-02-22 23:16:45
Flight Rules mvfr MVFR
Wind290° at 10 kt
W.Decomp.*RWY 28: 9.7 kt HW 2.2 kt LCW
RWY 25: 9.6 kt HW 2.9 kt RCW
RWY 19: 2.2 kt HW 9.7 kt RCW
Visibility9999 m
Phenomena:Light Snow
Clouds:Overcast 022 Hf
Expected CloudBase > 1,200 ft AGL from Temp-Dew spread
Ceiling2,200 ft
Temp-12°C (ISA -24)
Dew Point-15°C (79% RH)
AAT-19.0°C
QNH1006 hPa
Density Alt-1,526 ft
Elevation1,266 ft
Report Wrong Elevation
Raw Report
PABI 222253Z 29010KT 8SM -SN OVC022 M12/M15 A2970=

Extra information for PABI:More info

Metar Taf Metar & Taf Last 4 Metars F.Rules Stats Wind Profile Meteogram Temp Stats Airport Information Weather charts Add Link Nearby VenuesMetar ALERT Operation Metar Decoded Social comments

AIRNAV info for PABI